createdAt,value
2022-08-20T00:00:12.683Z,99.99
2022-08-20T00:01:02.683Z,99.99
2022-08-20T00:01:52.681Z,99.99
2022-08-20T00:02:42.652Z,99.99
2022-08-20T00:03:32.632Z,99.99
2022-08-20T00:04:22.611Z,99.99
2022-08-20T00:05:12.596Z,99.99
2022-08-20T00:06:02.614Z,99.99
2022-08-20T00:06:52.592Z,99.99
2022-08-20T00:07:42.585Z,99.99
2022-08-20T00:08:32.602Z,99.99
2022-08-20T00:09:22.573Z,99.99
2022-08-20T00:10:12.544Z,99.99
2022-08-20T00:11:02.555Z,99.99
2022-08-20T00:11:52.543Z,99.99
2022-08-20T00:12:42.522Z,99.99
2022-08-20T00:13:32.533Z,99.99
2022-08-20T00:14:22.514Z,99.99
2022-08-20T00:15:12.500Z,99.99
2022-08-20T00:16:02.503Z,99.99
2022-08-20T00:16:52.470Z,99.99
2022-08-20T00:17:42.485Z,99.99
2022-08-20T00:18:32.482Z,99.99
2022-08-20T00:19:22.464Z,99.99
2022-08-20T00:20:12.444Z,99.99
2022-08-20T00:21:02.443Z,99.99
2022-08-20T00:21:52.430Z,99.99
2022-08-20T00:22:43.440Z,99.99
2022-08-20T00:23:32.445Z,99.99
2022-08-20T00:24:22.412Z,99.99
2022-08-20T00:25:12.383Z,99.99
2022-08-20T00:26:02.380Z,99.99
2022-08-20T00:26:52.505Z,99.99
2022-08-20T00:27:42.361Z,99.99
2022-08-20T00:28:32.342Z,99.99
2022-08-20T00:29:22.577Z,99.99
2022-08-20T00:30:12.331Z,99.99
2022-08-20T00:31:02.330Z,99.99
2022-08-20T00:31:52.331Z,99.99
2022-08-20T00:32:42.323Z,99.99
2022-08-20T00:33:32.309Z,99.99
2022-08-20T00:34:22.309Z,99.99
2022-08-20T00:35:13.094Z,99.99
2022-08-20T00:36:02.288Z,99.99
2022-08-20T00:36:52.260Z,99.99
2022-08-20T00:37:42.283Z,99.99
2022-08-20T00:38:32.253Z,99.99
2022-08-20T00:39:22.241Z,99.99
2022-08-20T00:40:22.368Z,99.99
2022-08-20T00:41:03.231Z,99.99
2022-08-20T00:41:52.205Z,99.99
2022-08-20T00:42:42.229Z,99.99
2022-08-20T00:43:32.189Z,99.99
2022-08-20T00:44:22.214Z,99.99
2022-08-20T00:45:12.189Z,99.99
2022-08-20T00:46:02.177Z,99.99
2022-08-20T00:46:52.183Z,99.99
2022-08-20T00:47:42.167Z,99.99
2022-08-20T00:48:33.132Z,99.99
2022-08-20T00:49:22.151Z,99.99
2022-08-20T00:50:12.131Z,99.99
2022-08-20T00:51:03.111Z,99.99
2022-08-20T00:51:52.132Z,99.99
2022-08-20T00:52:42.108Z,99.99
2022-08-20T00:53:33.091Z,99.99
2022-08-20T00:54:22.084Z,99.99
2022-08-20T00:55:12.063Z,99.99
2022-08-20T00:56:02.084Z,99.99
2022-08-20T00:56:52.107Z,99.99
2022-08-20T00:57:59.157Z,99.99
2022-08-20T00:58:33.030Z,99.99
2022-08-20T00:59:22.030Z,99.99
2022-08-20T01:00:12.022Z,99.99
2022-08-20T01:01:02.020Z,99.99
2022-08-20T01:01:55.541Z,99.99
2022-08-20T01:02:42.003Z,99.99
2022-08-20T01:03:31.980Z,99.99
2022-08-20T01:04:21.968Z,99.99
2022-08-20T01:05:11.978Z,99.99
2022-08-20T01:06:01.960Z,99.99
2022-08-20T01:06:51.970Z,99.99
2022-08-20T01:07:41.940Z,99.99
2022-08-20T01:08:31.949Z,99.99
2022-08-20T01:09:50.158Z,99.99
2022-08-20T01:10:12.908Z,99.99
2022-08-20T01:11:01.897Z,99.99
2022-08-20T01:11:51.919Z,99.99
2022-08-20T01:12:41.900Z,99.99
2022-08-20T01:13:31.881Z,99.99
2022-08-20T01:14:21.882Z,99.99
2022-08-20T01:15:11.859Z,99.99
2022-08-20T01:16:01.846Z,99.99
2022-08-20T01:16:51.877Z,99.99
2022-08-20T01:17:41.852Z,99.99
2022-08-20T01:18:31.821Z,99.99
2022-08-20T01:19:29.845Z,99.99
2022-08-20T01:20:12.830Z,99.99
2022-08-20T01:21:01.818Z,99.99
2022-08-20T01:21:51.855Z,99.99
2022-08-20T01:22:41.782Z,99.99
2022-08-20T01:23:31.770Z,99.99
2022-08-20T01:24:21.779Z,99.99
2022-08-20T01:25:11.763Z,99.99
2022-08-20T01:26:01.759Z,99.99
2022-08-20T01:26:51.742Z,99.99
2022-08-20T01:27:42.916Z,99.99
2022-08-20T01:28:31.731Z,99.99
2022-08-20T01:29:21.709Z,99.99
2022-08-20T01:30:11.711Z,99.99
2022-08-20T01:31:01.699Z,99.99
2022-08-20T01:31:51.677Z,99.99
2022-08-20T01:32:41.667Z,99.99
2022-08-20T01:33:31.691Z,99.99
2022-08-20T01:34:21.658Z,99.99
2022-08-20T01:35:11.663Z,99.99
2022-08-20T01:36:01.629Z,99.99
2022-08-20T01:36:51.652Z,99.99
2022-08-20T01:37:41.619Z,99.99
2022-08-20T01:38:31.630Z,99.99
2022-08-20T01:39:21.588Z,99.99
2022-08-20T01:40:11.607Z,99.99
2022-08-20T01:41:01.591Z,99.99
2022-08-20T01:41:51.578Z,99.99
2022-08-20T01:42:58.487Z,99.99
2022-08-20T01:43:32.597Z,99.99
2022-08-20T01:44:21.548Z,99.99
2022-08-20T01:45:11.542Z,99.99
2022-08-20T01:46:01.540Z,99.99
2022-08-20T01:46:51.521Z,99.99
2022-08-20T01:47:41.499Z,99.99
2022-08-20T01:48:31.499Z,99.99
2022-08-20T01:49:23.629Z,99.99
2022-08-20T01:50:11.479Z,99.99
2022-08-20T01:51:01.491Z,99.99
2022-08-20T01:51:51.469Z,99.99
2022-08-20T01:52:41.470Z,99.99
2022-08-20T01:53:31.457Z,99.99
2022-08-20T01:54:21.436Z,99.99
2022-08-20T01:55:11.427Z,99.99
2022-08-20T01:56:01.447Z,99.99
2022-08-20T01:56:51.408Z,99.99
2022-08-20T01:57:41.451Z,99.99
2022-08-20T01:58:31.405Z,99.99
2022-08-20T01:59:21.387Z,99.99
2022-08-20T02:00:19.723Z,99.99
2022-08-20T02:01:02.380Z,99.99
2022-08-20T02:01:51.458Z,99.99
2022-08-20T02:02:41.367Z,99.99
2022-08-20T02:03:36.294Z,99.99
2022-08-20T02:04:22.338Z,99.99
2022-08-20T02:05:11.358Z,99.99
2022-08-20T02:06:01.318Z,99.99
2022-08-20T02:06:57.294Z,99.99
2022-08-20T02:07:42.322Z,99.99
2022-08-20T02:08:31.298Z,99.99
2022-08-20T02:09:21.296Z,99.99
2022-08-20T02:10:11.278Z,99.99
2022-08-20T02:11:01.256Z,99.99
2022-08-20T02:11:51.268Z,99.99
2022-08-20T02:12:41.247Z,99.99
2022-08-20T02:13:31.241Z,99.99
2022-08-20T02:14:21.263Z,99.99
2022-08-20T02:15:11.215Z,99.99
2022-08-20T02:16:01.220Z,99.99
2022-08-20T02:16:55.281Z,99.99
2022-08-20T02:17:41.178Z,99.99
2022-08-20T02:18:31.181Z,99.99
2022-08-20T02:19:21.164Z,99.99
2022-08-20T02:20:11.199Z,99.99
2022-08-20T02:21:01.145Z,99.99
2022-08-20T02:21:51.138Z,99.99
2022-08-20T02:22:41.137Z,99.99
2022-08-20T02:23:32.130Z,99.99
2022-08-20T02:24:21.122Z,99.99
2022-08-20T02:25:11.139Z,99.99
2022-08-20T02:26:01.088Z,99.99
2022-08-20T02:26:51.087Z,99.99
2022-08-20T02:27:41.074Z,99.99
2022-08-20T02:28:31.076Z,99.99
2022-08-20T02:29:21.057Z,99.99
2022-08-20T02:30:11.080Z,99.99
2022-08-20T02:31:02.059Z,99.99
2022-08-20T02:32:25.065Z,99.99
2022-08-20T02:32:42.023Z,99.99
2022-08-20T02:33:31.027Z,99.99
2022-08-20T02:34:22.899Z,99.99
2022-08-20T02:35:11.007Z,99.99
2022-08-20T02:36:00.995Z,99.99
2022-08-20T02:36:51.026Z,99.99
2022-08-20T02:37:40.977Z,99.99
2022-08-20T02:38:30.989Z,99.99
2022-08-20T02:39:20.947Z,99.99
2022-08-20T02:40:10.984Z,99.99
2022-08-20T02:41:00.935Z,99.99
2022-08-20T02:41:50.944Z,99.99
2022-08-20T02:42:40.936Z,99.99
2022-08-20T02:43:30.907Z,99.99
2022-08-20T02:44:20.917Z,99.99
2022-08-20T02:45:10.909Z,99.99
2022-08-20T02:46:00.886Z,99.99
2022-08-20T02:46:50.876Z,99.99
2022-08-20T02:47:40.876Z,99.99
2022-08-20T02:48:30.856Z,99.99
2022-08-20T02:49:20.837Z,99.99
2022-08-20T02:50:10.894Z,99.99
2022-08-20T02:51:00.817Z,99.99
2022-08-20T02:51:50.817Z,99.99
2022-08-20T02:52:40.822Z,99.99
2022-08-20T02:53:31.807Z,99.99
2022-08-20T02:54:20.784Z,99.99
2022-08-20T02:55:10.804Z,99.99
2022-08-20T02:56:01.786Z,99.99
2022-08-20T02:56:50.776Z,99.99
2022-08-20T02:57:40.747Z,99.99
2022-08-20T02:58:30.756Z,99.99
2022-08-20T02:59:20.789Z,99.99
2022-08-20T03:00:10.739Z,99.99
2022-08-20T03:01:00.755Z,99.99
2022-08-20T03:01:55.855Z,99.99
2022-08-20T03:02:41.714Z,99.99
2022-08-20T03:03:30.696Z,99.99
2022-08-20T03:04:20.715Z,99.99
2022-08-20T03:05:11.706Z,99.99
2022-08-20T03:06:00.666Z,99.99
2022-08-20T03:06:50.666Z,99.99
2022-08-20T03:07:40.655Z,99.99
2022-08-20T03:08:30.635Z,99.99
2022-08-20T03:09:20.679Z,99.99
2022-08-20T03:10:10.616Z,99.99
2022-08-20T03:11:00.615Z,99.99
2022-08-20T03:11:50.616Z,99.99
2022-08-20T03:12:40.598Z,99.99
2022-08-20T03:13:30.583Z,99.99
2022-08-20T03:14:20.565Z,99.99
2022-08-20T03:15:17.295Z,99.99
2022-08-20T03:16:01.561Z,99.99
2022-08-20T03:16:50.554Z,99.99
2022-08-20T03:17:40.546Z,99.99
2022-08-20T03:18:30.542Z,99.99
2022-08-20T03:19:20.512Z,99.99
2022-08-20T03:20:10.525Z,99.99
2022-08-20T03:21:00.514Z,99.99
2022-08-20T03:21:50.511Z,99.99
2022-08-20T03:22:40.502Z,99.99
2022-08-20T03:23:30.494Z,99.99
2022-08-20T03:24:20.504Z,99.99
2022-08-20T03:25:10.453Z,99.99
2022-08-20T03:26:00.451Z,99.99
2022-08-20T03:26:50.455Z,99.99
2022-08-20T03:27:40.423Z,99.99
2022-08-20T03:28:30.427Z,99.99
2022-08-20T03:29:20.414Z,99.99
2022-08-20T03:30:10.424Z,99.99
2022-08-20T03:31:00.395Z,99.99
2022-08-20T03:31:50.398Z,99.99
2022-08-20T03:32:40.364Z,99.99
2022-08-20T03:33:30.375Z,99.99
2022-08-20T03:34:20.356Z,99.99
2022-08-20T03:35:10.355Z,99.99
2022-08-20T03:36:00.334Z,99.99
2022-08-20T03:36:50.324Z,99.99
2022-08-20T03:37:40.516Z,99.99
2022-08-20T03:38:33.219Z,99.99
2022-08-20T03:39:20.304Z,99.99
2022-08-20T03:40:10.311Z,99.99
2022-08-20T03:41:00.275Z,99.99
2022-08-20T03:41:50.286Z,99.99
2022-08-20T03:42:40.275Z,99.99
2022-08-20T03:43:30.264Z,99.99
2022-08-20T03:44:20.234Z,99.99
2022-08-20T03:45:10.234Z,99.99
2022-08-20T03:46:00.235Z,99.99
2022-08-20T03:46:50.224Z,99.99
2022-08-20T03:47:40.220Z,99.99
2022-08-20T03:48:30.226Z,99.99
2022-08-20T03:49:20.183Z,99.99
2022-08-20T03:50:10.194Z,99.99
2022-08-20T03:51:00.163Z,99.99
2022-08-20T03:51:58.292Z,99.99
2022-08-20T03:52:41.157Z,99.99
2022-08-20T03:53:30.154Z,99.99
2022-08-20T03:54:20.156Z,99.99
2022-08-20T03:55:10.123Z,99.99
2022-08-20T03:56:02.361Z,99.99
2022-08-20T03:56:50.103Z,99.99
2022-08-20T03:57:40.096Z,99.99
2022-08-20T03:58:34.901Z,99.99
2022-08-20T03:59:21.074Z,99.99
2022-08-20T04:00:10.074Z,99.99
2022-08-20T04:01:00.123Z,99.99
2022-08-20T04:01:50.239Z,99.99
2022-08-20T04:02:40.033Z,99.99
2022-08-20T04:03:30.053Z,99.99
2022-08-20T04:04:20.035Z,99.99
2022-08-20T04:05:10.023Z,99.99
2022-08-20T04:06:00.000Z,99.99
2022-08-20T04:06:50.035Z,99.99
2022-08-20T04:07:39.994Z,99.99
2022-08-20T04:08:29.984Z,99.99
2022-08-20T04:09:19.961Z,99.99
2022-08-20T04:10:09.967Z,99.99
2022-08-20T04:10:59.955Z,99.99
2022-08-20T04:11:49.942Z,99.99
2022-08-20T04:12:39.959Z,99.99
2022-08-20T04:13:29.934Z,99.99
2022-08-20T04:14:20.597Z,99.99
2022-08-20T04:15:09.915Z,99.99
2022-08-20T04:15:59.932Z,99.99
2022-08-20T04:16:49.898Z,99.99
2022-08-20T04:17:39.874Z,99.99
2022-08-20T04:18:29.862Z,99.99
2022-08-20T04:19:19.857Z,99.99
2022-08-20T04:20:09.844Z,99.99
2022-08-20T04:20:59.902Z,99.99
2022-08-20T04:21:49.844Z,99.99
2022-08-20T04:22:39.823Z,99.99
2022-08-20T04:23:29.832Z,99.99
2022-08-20T04:24:22.654Z,99.99
2022-08-20T04:25:10.791Z,99.99
2022-08-20T04:26:00.820Z,99.99
2022-08-20T04:26:49.805Z,99.99
2022-08-20T04:27:39.783Z,99.99
2022-08-20T04:28:29.793Z,99.99
2022-08-20T04:29:19.744Z,99.99
2022-08-20T04:30:09.742Z,99.99
2022-08-20T04:30:59.764Z,99.99
2022-08-20T04:31:49.743Z,99.99
2022-08-20T04:32:39.712Z,99.99
2022-08-20T04:33:33.849Z,99.99
2022-08-20T04:34:20.712Z,99.99
2022-08-20T04:35:09.691Z,99.99
2022-08-20T04:35:59.685Z,99.99
2022-08-20T04:36:49.671Z,99.99
2022-08-20T04:37:39.682Z,99.99
2022-08-20T04:38:47.985Z,99.99
2022-08-20T04:39:20.664Z,99.99
2022-08-20T04:40:09.737Z,99.99
2022-08-20T04:40:59.645Z,99.99
2022-08-20T04:41:49.622Z,99.99
2022-08-20T04:42:39.643Z,99.99
2022-08-20T04:43:29.591Z,99.99
2022-08-20T04:44:19.582Z,99.99
2022-08-20T04:45:09.599Z,99.99
2022-08-20T04:45:59.574Z,99.99
2022-08-20T04:46:49.562Z,99.99
2022-08-20T04:47:39.548Z,99.99
2022-08-20T04:48:29.533Z,99.99
2022-08-20T04:49:19.541Z,99.99
2022-08-20T04:50:09.512Z,99.99
2022-08-20T04:50:59.553Z,99.99
2022-08-20T04:51:49.502Z,99.99
2022-08-20T04:52:39.491Z,99.99
2022-08-20T04:53:29.472Z,99.99
2022-08-20T04:54:19.491Z,99.99
2022-08-20T04:55:09.471Z,99.99
2022-08-20T04:55:59.464Z,99.99
2022-08-20T04:56:49.451Z,99.99
2022-08-20T04:57:39.441Z,99.99
2022-08-20T04:58:29.438Z,99.99
2022-08-20T04:59:19.430Z,99.99
2022-08-20T05:00:09.424Z,99.99
2022-08-20T05:01:01.219Z,99.99
2022-08-20T05:01:49.400Z,99.99
2022-08-20T05:02:39.379Z,99.99
2022-08-20T05:03:29.384Z,99.99
2022-08-20T05:04:19.390Z,99.99
2022-08-20T05:05:09.360Z,99.99
2022-08-20T05:05:59.351Z,99.99
2022-08-20T05:06:49.341Z,99.99
2022-08-20T05:07:39.321Z,99.99
2022-08-20T05:08:29.313Z,99.99
2022-08-20T05:09:19.321Z,99.99
2022-08-20T05:10:09.331Z,99.99
2022-08-20T05:11:16.552Z,99.99
2022-08-20T05:11:50.271Z,99.99
2022-08-20T05:12:39.280Z,99.99
2022-08-20T05:13:29.272Z,99.99
2022-08-20T05:14:19.260Z,99.99
2022-08-20T05:15:09.264Z,99.99
2022-08-20T05:15:59.261Z,99.99
2022-08-20T05:16:49.220Z,99.99
2022-08-20T05:17:39.223Z,99.99
2022-08-20T05:18:29.211Z,99.99
2022-08-20T05:19:19.218Z,99.99
2022-08-20T05:20:09.204Z,99.99
2022-08-20T05:20:59.190Z,99.99
2022-08-20T05:21:49.211Z,99.99
2022-08-20T05:22:39.158Z,99.99
2022-08-20T05:23:29.151Z,99.99
2022-08-20T05:24:19.150Z,99.99
2022-08-20T05:25:09.150Z,99.99
2022-08-20T05:25:59.127Z,99.99
2022-08-20T05:26:49.110Z,99.99
2022-08-20T05:27:39.197Z,99.99
2022-08-20T05:28:29.100Z,99.99
2022-08-20T05:29:19.120Z,99.99
2022-08-20T05:30:09.114Z,99.99
2022-08-20T05:30:59.069Z,99.99
2022-08-20T05:31:49.058Z,99.99
2022-08-20T05:32:44.456Z,99.99
2022-08-20T05:33:30.053Z,99.99
2022-08-20T05:34:19.048Z,99.99
2022-08-20T05:35:09.029Z,99.99
2022-08-20T05:35:59.031Z,99.99
2022-08-20T05:36:49.287Z,99.99
2022-08-20T05:37:39.009Z,99.99
2022-08-20T05:38:28.997Z,99.99
2022-08-20T05:39:18.982Z,99.99
2022-08-20T05:40:09.007Z,99.99
2022-08-20T05:40:58.978Z,99.99
2022-08-20T05:41:48.957Z,99.99
2022-08-20T05:42:38.938Z,99.99
2022-08-20T05:43:28.927Z,99.99
2022-08-20T05:44:18.944Z,99.99
2022-08-20T05:45:11.347Z,99.99
2022-08-20T05:45:58.945Z,99.99
2022-08-20T05:46:48.889Z,99.99
2022-08-20T05:47:38.886Z,99.99
2022-08-20T05:48:28.879Z,99.99
2022-08-20T05:49:18.882Z,99.99
2022-08-20T05:50:08.850Z,99.99
2022-08-20T05:50:58.878Z,99.99
2022-08-20T05:51:48.850Z,99.99
2022-08-20T05:52:38.830Z,99.99
2022-08-20T05:53:28.838Z,99.99
2022-08-20T05:54:18.819Z,99.99
2022-08-20T05:55:08.798Z,99.99
2022-08-20T05:55:58.796Z,99.99
2022-08-20T05:56:48.808Z,99.99
2022-08-20T05:57:38.777Z,99.99
2022-08-20T05:58:28.780Z,99.99
2022-08-20T05:59:22.270Z,99.99
2022-08-20T06:00:09.757Z,99.99
2022-08-20T06:00:58.810Z,99.99
2022-08-20T06:01:48.782Z,99.99
2022-08-20T06:02:38.738Z,99.99
2022-08-20T06:03:28.719Z,99.99
2022-08-20T06:04:18.707Z,99.99
2022-08-20T06:05:08.708Z,99.99
2022-08-20T06:05:58.696Z,99.99
2022-08-20T06:06:48.687Z,99.99
2022-08-20T06:07:38.687Z,99.99
2022-08-20T06:08:28.662Z,99.99
2022-08-20T06:09:31.127Z,99.99
2022-08-20T06:10:09.650Z,99.99
2022-08-20T06:10:58.647Z,99.99
2022-08-20T06:11:48.635Z,99.99
2022-08-20T06:12:38.618Z,99.99
2022-08-20T06:13:28.611Z,99.99
2022-08-20T06:14:18.608Z,99.99
2022-08-20T06:15:08.607Z,99.99
2022-08-20T06:15:58.576Z,99.99
2022-08-20T06:16:57.138Z,99.99
2022-08-20T06:17:39.754Z,99.99
2022-08-20T06:18:29.003Z,99.99
2022-08-20T06:19:24.197Z,99.99
2022-08-20T06:20:09.537Z,99.99
2022-08-20T06:20:58.519Z,99.99
2022-08-20T06:21:48.506Z,99.99
2022-08-20T06:22:38.511Z,99.99
2022-08-20T06:23:28.488Z,99.99
2022-08-20T06:24:19.497Z,99.99
2022-08-20T06:25:08.539Z,99.99
2022-08-20T06:25:58.478Z,99.99
2022-08-20T06:26:48.448Z,99.99
2022-08-20T06:27:38.460Z,99.99
2022-08-20T06:28:28.445Z,99.99
2022-08-20T06:29:18.488Z,99.99
2022-08-20T06:30:08.416Z,99.99
2022-08-20T06:30:58.417Z,99.99
2022-08-20T06:31:48.417Z,99.99
2022-08-20T06:32:38.395Z,99.99
2022-08-20T06:33:28.378Z,99.99
2022-08-20T06:34:18.419Z,99.99
2022-08-20T06:35:08.375Z,99.99
2022-08-20T06:35:58.377Z,99.99
2022-08-20T06:36:48.358Z,99.99
2022-08-20T06:37:38.349Z,99.99
2022-08-20T06:38:28.327Z,99.99
2022-08-20T06:39:18.318Z,99.99
2022-08-20T06:40:08.386Z,99.99
2022-08-20T06:40:58.305Z,99.99
2022-08-20T06:41:48.297Z,99.99
2022-08-20T06:42:38.307Z,99.99
2022-08-20T06:43:28.286Z,99.99
2022-08-20T06:44:18.276Z,99.99
2022-08-20T06:45:08.288Z,99.99
2022-08-20T06:45:58.276Z,99.99
2022-08-20T06:46:48.248Z,99.99
2022-08-20T06:47:38.248Z,99.99
2022-08-20T06:48:28.224Z,99.99
2022-08-20T06:49:18.237Z,99.99
2022-08-20T06:50:08.218Z,99.99
2022-08-20T06:50:58.266Z,99.99
2022-08-20T06:51:51.897Z,99.99
2022-08-20T06:52:52.697Z,99.99
2022-08-20T06:53:29.345Z,99.99
2022-08-20T06:54:18.198Z,99.99
2022-08-20T06:55:08.167Z,99.99
2022-08-20T06:55:58.146Z,99.99
2022-08-20T06:56:48.149Z,99.99
2022-08-20T06:57:38.159Z,99.99
2022-08-20T06:58:37.159Z,99.99
2022-08-20T06:59:19.123Z,99.99
2022-08-20T07:00:08.136Z,99.99
2022-08-20T07:01:01.081Z,99.99
2022-08-20T07:01:49.087Z,99.99
2022-08-20T07:02:38.077Z,99.99
2022-08-20T07:03:28.065Z,99.99
2022-08-20T07:04:18.065Z,99.99
2022-08-20T07:05:08.079Z,99.99
2022-08-20T07:05:58.055Z,99.99
2022-08-20T07:06:48.061Z,99.99
2022-08-20T07:07:38.026Z,99.99
2022-08-20T07:08:28.034Z,99.99
2022-08-20T07:09:18.017Z,99.99
2022-08-20T07:10:08.025Z,99.99
2022-08-20T07:10:57.996Z,99.99
2022-08-20T07:11:47.996Z,99.99
2022-08-20T07:12:38.006Z,99.99
2022-08-20T07:13:28.002Z,99.99
2022-08-20T07:14:17.956Z,99.99
2022-08-20T07:15:07.946Z,99.99
2022-08-20T07:15:57.969Z,99.99
2022-08-20T07:16:47.936Z,99.99
2022-08-20T07:17:37.938Z,99.99
2022-08-20T07:18:29.115Z,99.99
2022-08-20T07:19:17.928Z,99.99
2022-08-20T07:20:07.898Z,99.99
2022-08-20T07:20:57.908Z,99.99
2022-08-20T07:21:47.886Z,99.99
2022-08-20T07:22:37.885Z,99.99
2022-08-20T07:23:27.874Z,99.99
2022-08-20T07:24:17.886Z,99.99
2022-08-20T07:25:07.845Z,99.99
2022-08-20T07:25:57.849Z,99.99
2022-08-20T07:26:47.826Z,99.99
2022-08-20T07:27:37.843Z,99.99
2022-08-20T07:28:27.824Z,99.99
2022-08-20T07:29:18.014Z,99.99
2022-08-20T07:30:12.185Z,99.99
2022-08-20T07:30:58.814Z,99.99
2022-08-20T07:31:48.796Z,99.99
2022-08-20T07:32:39.489Z,99.99
2022-08-20T07:33:28.340Z,99.99
2022-08-20T07:34:17.756Z,99.99
2022-08-20T07:35:07.755Z,99.99
2022-08-20T07:35:57.759Z,99.00
2022-08-20T07:36:47.756Z,98.39
2022-08-20T07:37:37.724Z,98.19
2022-08-20T07:38:27.738Z,98.19
2022-08-20T07:39:17.715Z,98.39
2022-08-20T07:40:07.748Z,97.55
2022-08-20T07:40:57.707Z,98.35
2022-08-20T07:41:56.399Z,98.65
2022-08-20T07:42:38.674Z,98.95
2022-08-20T07:43:27.708Z,98.85
2022-08-20T07:44:17.678Z,98.85
2022-08-20T07:45:07.687Z,98.30
2022-08-20T07:45:57.654Z,97.14
2022-08-20T07:46:47.635Z,95.94
2022-08-20T07:47:37.636Z,95.94
2022-08-20T07:48:30.980Z,95.43
2022-08-20T07:49:17.635Z,95.73
2022-08-20T07:50:07.607Z,95.43
2022-08-20T07:50:57.596Z,95.13
2022-08-20T07:51:47.596Z,95.64
2022-08-20T07:52:37.575Z,95.64
2022-08-20T07:53:30.125Z,94.93
2022-08-20T07:54:17.585Z,94.83
2022-08-20T07:55:07.558Z,95.43
2022-08-20T07:55:59.429Z,96.04
2022-08-20T07:56:47.545Z,96.04
2022-08-20T07:57:37.524Z,96.64
2022-08-20T07:58:29.623Z,96.94
2022-08-20T07:59:18.536Z,97.55
2022-08-20T08:00:07.505Z,97.75
2022-08-20T08:00:57.551Z,97.64
2022-08-20T08:01:47.495Z,98.05
2022-08-20T08:02:37.485Z,97.55
2022-08-20T08:03:39.749Z,97.79
2022-08-20T08:04:18.465Z,98.70
2022-08-20T08:05:07.445Z,98.90
2022-08-20T08:05:57.445Z,98.90
2022-08-20T08:06:47.436Z,98.39
2022-08-20T08:07:37.428Z,99.51
2022-08-20T08:08:27.414Z,99.99
2022-08-20T08:09:17.436Z,99.99
2022-08-20T08:10:07.396Z,99.99
2022-08-20T08:10:57.395Z,99.99
2022-08-20T08:11:47.860Z,99.99
2022-08-20T08:12:37.369Z,99.99
2022-08-20T08:13:27.396Z,99.99
2022-08-20T08:14:17.385Z,99.99
2022-08-20T08:15:07.356Z,99.99
2022-08-20T08:15:57.334Z,99.99
2022-08-20T08:16:47.326Z,99.99
2022-08-20T08:17:37.347Z,99.99
2022-08-20T08:18:31.734Z,99.99
2022-08-20T08:19:17.325Z,99.99
2022-08-20T08:20:07.327Z,99.99
2022-08-20T08:20:57.370Z,99.99
2022-08-20T08:21:47.276Z,99.99
2022-08-20T08:22:37.265Z,99.99
2022-08-20T08:23:32.208Z,99.99
2022-08-20T08:24:21.681Z,99.99
2022-08-20T08:25:08.267Z,99.99
2022-08-20T08:25:57.244Z,99.99
2022-08-20T08:26:47.264Z,99.99
2022-08-20T08:27:37.219Z,99.99
2022-08-20T08:28:27.213Z,99.99
2022-08-20T08:29:17.216Z,99.99
2022-08-20T08:30:07.217Z,99.99
2022-08-20T08:30:57.207Z,99.99
2022-08-20T08:31:47.462Z,99.99
2022-08-20T08:32:37.173Z,99.99
2022-08-20T08:33:27.175Z,99.99
2022-08-20T08:34:17.161Z,99.99
2022-08-20T08:35:07.158Z,99.99
2022-08-20T08:35:57.145Z,99.99
2022-08-20T08:36:47.130Z,99.99
2022-08-20T08:37:37.161Z,99.99
2022-08-20T08:38:27.125Z,99.99
2022-08-20T08:39:17.095Z,99.99
2022-08-20T08:40:07.133Z,99.99
2022-08-20T08:41:00.078Z,99.99
2022-08-20T08:41:47.086Z,99.99
2022-08-20T08:42:41.224Z,99.99
2022-08-20T08:43:31.803Z,99.99
2022-08-20T08:44:17.100Z,99.99
2022-08-20T08:45:07.055Z,99.99
2022-08-20T08:45:57.024Z,99.99
2022-08-20T08:46:47.025Z,99.99
2022-08-20T08:47:37.024Z,99.99
2022-08-20T08:48:27.015Z,99.99
2022-08-20T08:49:16.995Z,99.99
2022-08-20T08:50:07.068Z,99.99
2022-08-20T08:50:56.975Z,99.99
2022-08-20T08:51:46.975Z,99.99
2022-08-20T08:52:36.963Z,99.99
2022-08-20T08:53:26.974Z,99.99
2022-08-20T08:54:16.955Z,99.99
2022-08-20T08:55:06.935Z,99.99
2022-08-20T08:55:56.934Z,99.99
2022-08-20T08:56:49.574Z,99.99
2022-08-20T08:57:36.925Z,99.99
2022-08-20T08:58:26.905Z,99.99
2022-08-20T08:59:17.076Z,99.99
2022-08-20T09:00:06.895Z,99.99
2022-08-20T09:01:01.666Z,99.99
2022-08-20T09:01:54.989Z,99.99
2022-08-20T09:02:37.899Z,99.99
2022-08-20T09:03:26.853Z,99.99
2022-08-20T09:04:16.846Z,99.99
2022-08-20T09:05:06.848Z,99.99
2022-08-20T09:05:56.845Z,99.99
2022-08-20T09:06:49.342Z,99.99
2022-08-20T09:07:37.802Z,99.99
2022-08-20T09:08:26.817Z,99.99
2022-08-20T09:09:16.775Z,99.99
2022-08-20T09:10:06.774Z,99.99
2022-08-20T09:10:56.762Z,99.99
2022-08-20T09:11:46.966Z,99.99
2022-08-20T09:12:36.747Z,99.99
2022-08-20T09:13:26.745Z,99.99
2022-08-20T09:14:16.736Z,99.99
2022-08-20T09:15:06.743Z,99.99
2022-08-20T09:15:56.715Z,99.99
2022-08-20T09:16:52.380Z,99.99
2022-08-20T09:17:37.704Z,99.99
2022-08-20T09:18:26.693Z,99.99
2022-08-20T09:19:16.685Z,99.99
2022-08-20T09:20:06.676Z,99.99
2022-08-20T09:20:56.696Z,99.99
2022-08-20T09:21:46.668Z,99.99
2022-08-20T09:22:36.645Z,99.99
2022-08-20T09:23:26.654Z,99.99
2022-08-20T09:24:16.634Z,99.99
2022-08-20T09:25:06.638Z,99.99
2022-08-20T09:25:56.627Z,99.99
2022-08-20T09:26:46.595Z,99.99
2022-08-20T09:27:36.583Z,99.99
2022-08-20T09:28:26.578Z,99.99
2022-08-20T09:29:17.585Z,99.99
2022-08-20T09:30:06.594Z,99.99
2022-08-20T09:30:56.554Z,99.99
2022-08-20T09:31:46.601Z,99.99
2022-08-20T09:32:36.548Z,99.99
2022-08-20T09:33:26.523Z,99.99
2022-08-20T09:34:16.529Z,99.99
2022-08-20T09:35:09.302Z,99.72
2022-08-20T09:35:56.505Z,99.92
2022-08-20T09:36:46.504Z,99.62
2022-08-20T09:37:37.655Z,99.42
2022-08-20T09:38:26.465Z,99.57
2022-08-20T09:39:16.445Z,99.77
2022-08-20T09:40:06.524Z,99.87
2022-08-20T09:40:56.446Z,99.99
2022-08-20T09:41:46.446Z,99.99
2022-08-20T09:42:41.036Z,99.87
2022-08-20T09:43:27.405Z,99.57
2022-08-20T09:44:16.405Z,99.77
2022-08-20T09:45:06.385Z,99.87
2022-08-20T09:45:56.400Z,99.99
2022-08-20T09:46:46.367Z,99.99
2022-08-20T09:47:36.366Z,99.99
2022-08-20T09:48:32.040Z,99.99
2022-08-20T09:49:17.345Z,99.99
2022-08-20T09:50:06.338Z,99.99
2022-08-20T09:50:56.327Z,98.91
2022-08-20T09:51:46.326Z,99.11
2022-08-20T09:52:40.221Z,99.99
2022-08-20T09:53:26.307Z,99.99
2022-08-20T09:54:16.283Z,99.99
2022-08-20T09:55:06.293Z,99.52
2022-08-20T09:55:56.255Z,99.32
2022-08-20T09:56:46.267Z,96.91
2022-08-20T09:57:36.251Z,96.10
2022-08-20T09:58:26.262Z,95.60
2022-08-20T09:59:16.235Z,96.50
2022-08-20T10:00:06.215Z,97.71
2022-08-20T10:00:56.215Z,98.81
2022-08-20T10:01:46.265Z,99.32
2022-08-20T10:02:36.183Z,98.71
2022-08-20T10:03:26.427Z,98.41
2022-08-20T10:04:16.179Z,98.81
2022-08-20T10:05:06.178Z,99.52
2022-08-20T10:05:56.180Z,99.99
2022-08-20T10:06:46.143Z,99.46
2022-08-20T10:07:36.128Z,99.76
2022-08-20T10:08:26.136Z,99.99
2022-08-20T10:09:16.143Z,99.99
2022-08-20T10:10:06.115Z,99.99
2022-08-20T10:10:56.105Z,99.99
2022-08-20T10:11:46.094Z,99.99
2022-08-20T10:12:36.065Z,99.99
2022-08-20T10:13:26.075Z,99.99
2022-08-20T10:14:16.053Z,99.99
2022-08-20T10:15:06.075Z,99.99
2022-08-20T10:15:56.046Z,99.99
2022-08-20T10:16:46.027Z,99.99
2022-08-20T10:17:36.013Z,99.99
2022-08-20T10:18:26.035Z,99.99
2022-08-20T10:19:16.038Z,99.99
2022-08-20T10:20:06.035Z,99.99
2022-08-20T10:20:55.975Z,99.99
2022-08-20T10:21:45.975Z,99.99
2022-08-20T10:22:35.966Z,99.99
2022-08-20T10:23:25.957Z,99.99
2022-08-20T10:24:15.945Z,99.99
2022-08-20T10:25:05.938Z,99.99
2022-08-20T10:25:55.954Z,99.99
2022-08-20T10:26:45.963Z,99.99
2022-08-20T10:27:35.928Z,99.99
2022-08-20T10:28:25.915Z,99.99
2022-08-20T10:29:15.911Z,99.99
2022-08-20T10:30:05.886Z,99.99
2022-08-20T10:30:55.885Z,99.99
2022-08-20T10:31:45.894Z,99.99
2022-08-20T10:32:35.857Z,99.99
2022-08-20T10:33:25.870Z,99.99
2022-08-20T10:34:15.855Z,99.99
2022-08-20T10:35:05.845Z,99.99
2022-08-20T10:35:59.938Z,99.99
2022-08-20T10:36:45.824Z,99.99
2022-08-20T10:37:35.795Z,99.99
2022-08-20T10:38:25.796Z,99.99
2022-08-20T10:39:15.827Z,99.99
2022-08-20T10:40:05.848Z,99.99
2022-08-20T10:40:55.764Z,99.99
2022-08-20T10:41:45.769Z,99.99
2022-08-20T10:42:39.204Z,99.99
2022-08-20T10:43:26.746Z,99.99